sensor_id;sensor_type;location;lat;lon;timestamp;P1;durP1;ratioP1;P2;durP2;ratioP2
43070;SDS011;36278;47.952;21.714;2022-12-20T00:01:12;99.57;;;55.07;;
43070;SDS011;36278;47.952;21.714;2022-12-20T00:03:57;96.80;;;54.90;;
43070;SDS011;36278;47.952;21.714;2022-12-20T00:06:26;101.57;;;55.35;;
43070;SDS011;36278;47.952;21.714;2022-12-20T00:08:56;95.80;;;52.93;;
43070;SDS011;36278;47.952;21.714;2022-12-20T00:11:23;94.25;;;54.10;;
43070;SDS011;36278;47.952;21.714;2022-12-20T00:13:49;97.40;;;54.40;;
43070;SDS011;36278;47.952;21.714;2022-12-20T00:16:17;96.73;;;54.47;;
43070;SDS011;36278;47.952;21.714;2022-12-20T00:18:44;102.35;;;56.72;;
43070;SDS011;36278;47.952;21.714;2022-12-20T00:21:11;94.43;;;53.70;;
43070;SDS011;36278;47.952;21.714;2022-12-20T00:23:38;103.93;;;55.35;;
43070;SDS011;36278;47.952;21.714;2022-12-20T00:28:34;97.78;;;55.35;;
43070;SDS011;36278;47.952;21.714;2022-12-20T00:31:00;95.40;;;54.88;;
43070;SDS011;36278;47.952;21.714;2022-12-20T00:33:27;96.18;;;53.20;;
43070;SDS011;36278;47.952;21.714;2022-12-20T00:35:53;99.25;;;56.13;;
43070;SDS011;36278;47.952;21.714;2022-12-20T00:38:20;88.90;;;50.42;;
43070;SDS011;36278;47.952;21.714;2022-12-20T00:40:46;85.05;;;47.22;;
43070;SDS011;36278;47.952;21.714;2022-12-20T00:43:12;83.47;;;49.20;;
43070;SDS011;36278;47.952;21.714;2022-12-20T00:45:37;85.10;;;47.40;;
43070;SDS011;36278;47.952;21.714;2022-12-20T00:48:03;80.60;;;46.20;;
43070;SDS011;36278;47.952;21.714;2022-12-20T00:50:29;89.90;;;47.63;;
43070;SDS011;36278;47.952;21.714;2022-12-20T00:52:54;78.90;;;44.00;;
43070;SDS011;36278;47.952;21.714;2022-12-20T00:55:19;77.10;;;42.73;;
43070;SDS011;36278;47.952;21.714;2022-12-20T00:57:45;76.50;;;42.47;;
43070;SDS011;36278;47.952;21.714;2022-12-20T01:00:10;75.57;;;43.63;;
43070;SDS011;36278;47.952;21.714;2022-12-20T01:02:36;77.30;;;43.43;;
43070;SDS011;36278;47.952;21.714;2022-12-20T01:05:02;74.43;;;42.57;;
43070;SDS011;36278;47.952;21.714;2022-12-20T01:07:27;74.53;;;42.00;;
43070;SDS011;36278;47.952;21.714;2022-12-20T01:09:53;79.07;;;43.73;;
43070;SDS011;36278;47.952;21.714;2022-12-20T01:12:18;74.00;;;42.43;;
43070;SDS011;36278;47.952;21.714;2022-12-20T01:14:43;76.43;;;42.70;;
43070;SDS011;36278;47.952;21.714;2022-12-20T01:17:09;73.87;;;42.03;;
43070;SDS011;36278;47.952;21.714;2022-12-20T01:19:35;77.27;;;41.77;;
43070;SDS011;36278;47.952;21.714;2022-12-20T01:22:00;75.50;;;42.47;;
43070;SDS011;36278;47.952;21.714;2022-12-20T01:24:26;77.83;;;43.23;;
43070;SDS011;36278;47.952;21.714;2022-12-20T01:26:51;80.00;;;45.27;;
43070;SDS011;36278;47.952;21.714;2022-12-20T01:29:16;78.23;;;44.57;;
43070;SDS011;36278;47.952;21.714;2022-12-20T01:31:42;75.83;;;43.87;;
43070;SDS011;36278;47.952;21.714;2022-12-20T01:34:08;81.68;;;45.97;;
43070;SDS011;36278;47.952;21.714;2022-12-20T01:36:34;75.60;;;44.40;;
43070;SDS011;36278;47.952;21.714;2022-12-20T01:41:28;77.50;;;44.03;;
43070;SDS011;36278;47.952;21.714;2022-12-20T01:43:59;77.47;;;44.15;;
43070;SDS011;36278;47.952;21.714;2022-12-20T01:46:27;73.13;;;41.77;;
43070;SDS011;36278;47.952;21.714;2022-12-20T01:51:28;77.45;;;43.35;;
43070;SDS011;36278;47.952;21.714;2022-12-20T01:53:57;71.05;;;43.33;;
43070;SDS011;36278;47.952;21.714;2022-12-20T01:56:46;82.77;;;44.67;;
43070;SDS011;36278;47.952;21.714;2022-12-20T01:59:15;86.63;;;48.83;;
43070;SDS011;36278;47.952;21.714;2022-12-20T02:01:41;85.43;;;47.17;;
43070;SDS011;36278;47.952;21.714;2022-12-20T02:04:07;78.03;;;46.28;;
43070;SDS011;36278;47.952;21.714;2022-12-20T02:06:34;88.07;;;48.27;;
43070;SDS011;36278;47.952;21.714;2022-12-20T02:09:00;80.20;;;46.85;;
43070;SDS011;36278;47.952;21.714;2022-12-20T02:17:19;73.87;;;41.33;;
43070;SDS011;36278;47.952;21.714;2022-12-20T02:22:52;74.57;;;39.75;;
43070;SDS011;36278;47.952;21.714;2022-12-20T02:31:09;73.77;;;39.27;;
43070;SDS011;36278;47.952;21.714;2022-12-20T02:33:38;67.43;;;38.65;;
43070;SDS011;36278;47.952;21.714;2022-12-20T02:36:08;72.00;;;40.23;;
43070;SDS011;36278;47.952;21.714;2022-12-20T02:38:35;83.13;;;44.77;;
43070;SDS011;36278;47.952;21.714;2022-12-20T02:41:04;117.13;;;61.47;;
43070;SDS011;36278;47.952;21.714;2022-12-20T02:43:34;111.13;;;59.33;;
43070;SDS011;36278;47.952;21.714;2022-12-20T02:46:22;109.93;;;60.70;;
43070;SDS011;36278;47.952;21.714;2022-12-20T02:48:50;104.30;;;58.72;;
43070;SDS011;36278;47.952;21.714;2022-12-20T02:51:17;109.00;;;60.30;;
43070;SDS011;36278;47.952;21.714;2022-12-20T02:53:45;106.40;;;59.42;;
43070;SDS011;36278;47.952;21.714;2022-12-20T02:56:12;110.93;;;64.30;;
43070;SDS011;36278;47.952;21.714;2022-12-20T02:58:54;122.43;;;73.80;;
43070;SDS011;36278;47.952;21.714;2022-12-20T03:01:29;122.53;;;69.70;;
43070;SDS011;36278;47.952;21.714;2022-12-20T03:03:58;126.32;;;73.60;;
43070;SDS011;36278;47.952;21.714;2022-12-20T03:06:25;136.30;;;79.50;;
43070;SDS011;36278;47.952;21.714;2022-12-20T03:08:50;141.87;;;81.23;;
43070;SDS011;36278;47.952;21.714;2022-12-20T03:11:16;144.47;;;79.97;;
43070;SDS011;36278;47.952;21.714;2022-12-20T03:13:41;133.27;;;77.73;;
43070;SDS011;36278;47.952;21.714;2022-12-20T03:16:06;142.27;;;80.10;;
43070;SDS011;36278;47.952;21.714;2022-12-20T03:18:33;142.93;;;82.60;;
43070;SDS011;36278;47.952;21.714;2022-12-20T03:20:59;135.77;;;78.37;;
43070;SDS011;36278;47.952;21.714;2022-12-20T03:23:24;137.63;;;79.40;;
43070;SDS011;36278;47.952;21.714;2022-12-20T03:25:49;126.27;;;71.23;;
43070;SDS011;36278;47.952;21.714;2022-12-20T03:28:15;103.07;;;58.37;;
43070;SDS011;36278;47.952;21.714;2022-12-20T03:30:40;92.60;;;54.30;;
43070;SDS011;36278;47.952;21.714;2022-12-20T03:33:06;104.30;;;58.20;;
43070;SDS011;36278;47.952;21.714;2022-12-20T03:35:31;94.73;;;54.47;;
43070;SDS011;36278;47.952;21.714;2022-12-20T03:37:57;95.50;;;52.90;;
43070;SDS011;36278;47.952;21.714;2022-12-20T03:40:22;95.47;;;54.50;;
43070;SDS011;36278;47.952;21.714;2022-12-20T03:42:48;90.27;;;50.20;;
43070;SDS011;36278;47.952;21.714;2022-12-20T03:45:13;97.40;;;52.60;;
43070;SDS011;36278;47.952;21.714;2022-12-20T03:47:39;88.73;;;51.07;;
43070;SDS011;36278;47.952;21.714;2022-12-20T03:50:05;89.80;;;52.17;;
43070;SDS011;36278;47.952;21.714;2022-12-20T03:52:31;88.23;;;49.87;;
43070;SDS011;36278;47.952;21.714;2022-12-20T03:54:56;90.53;;;51.00;;
43070;SDS011;36278;47.952;21.714;2022-12-20T03:57:22;83.83;;;47.20;;
43070;SDS011;36278;47.952;21.714;2022-12-20T03:59:47;83.97;;;47.40;;
43070;SDS011;36278;47.952;21.714;2022-12-20T04:02:13;85.30;;;46.10;;
43070;SDS011;36278;47.952;21.714;2022-12-20T04:04:39;77.00;;;43.83;;
43070;SDS011;36278;47.952;21.714;2022-12-20T04:07:04;74.27;;;41.97;;
43070;SDS011;36278;47.952;21.714;2022-12-20T04:09:30;71.97;;;41.60;;
43070;SDS011;36278;47.952;21.714;2022-12-20T04:11:55;68.17;;;38.40;;
43070;SDS011;36278;47.952;21.714;2022-12-20T04:14:21;71.97;;;41.30;;
43070;SDS011;36278;47.952;21.714;2022-12-20T04:16:46;74.67;;;40.30;;
43070;SDS011;36278;47.952;21.714;2022-12-20T04:19:12;68.20;;;39.17;;
43070;SDS011;36278;47.952;21.714;2022-12-20T04:21:37;71.13;;;40.70;;
43070;SDS011;36278;47.952;21.714;2022-12-20T04:24:03;75.90;;;43.43;;
43070;SDS011;36278;47.952;21.714;2022-12-20T04:26:30;74.37;;;41.17;;
43070;SDS011;36278;47.952;21.714;2022-12-20T04:28:56;77.70;;;41.03;;
43070;SDS011;36278;47.952;21.714;2022-12-20T04:31:21;79.47;;;42.67;;
43070;SDS011;36278;47.952;21.714;2022-12-20T04:33:47;67.53;;;38.83;;
43070;SDS011;36278;47.952;21.714;2022-12-20T04:36:12;71.10;;;38.83;;
43070;SDS011;36278;47.952;21.714;2022-12-20T04:38:38;72.80;;;37.43;;
43070;SDS011;36278;47.952;21.714;2022-12-20T04:41:03;68.83;;;37.60;;
43070;SDS011;36278;47.952;21.714;2022-12-20T04:43:29;63.63;;;35.73;;
43070;SDS011;36278;47.952;21.714;2022-12-20T04:45:55;63.70;;;35.03;;
43070;SDS011;36278;47.952;21.714;2022-12-20T04:48:21;69.20;;;36.23;;
43070;SDS011;36278;47.952;21.714;2022-12-20T04:50:51;58.47;;;34.40;;
43070;SDS011;36278;47.952;21.714;2022-12-20T04:53:17;61.77;;;33.20;;
43070;SDS011;36278;47.952;21.714;2022-12-20T04:56:02;64.17;;;35.63;;
43070;SDS011;36278;47.952;21.714;2022-12-20T04:58:28;57.03;;;33.43;;
43070;SDS011;36278;47.952;21.714;2022-12-20T05:00:54;64.80;;;34.00;;
43070;SDS011;36278;47.952;21.714;2022-12-20T05:03:20;59.37;;;33.03;;
43070;SDS011;36278;47.952;21.714;2022-12-20T05:05:47;59.65;;;33.13;;
43070;SDS011;36278;47.952;21.714;2022-12-20T05:08:13;66.73;;;34.90;;
43070;SDS011;36278;47.952;21.714;2022-12-20T05:10:39;65.03;;;33.77;;
43070;SDS011;36278;47.952;21.714;2022-12-20T05:13:04;60.07;;;33.60;;
43070;SDS011;36278;47.952;21.714;2022-12-20T05:15:30;63.10;;;35.20;;
43070;SDS011;36278;47.952;21.714;2022-12-20T05:17:56;62.77;;;34.77;;
43070;SDS011;36278;47.952;21.714;2022-12-20T05:20:27;57.73;;;32.77;;
43070;SDS011;36278;47.952;21.714;2022-12-20T05:22:53;63.57;;;34.57;;
43070;SDS011;36278;47.952;21.714;2022-12-20T05:25:39;61.73;;;33.53;;
43070;SDS011;36278;47.952;21.714;2022-12-20T05:28:26;62.27;;;33.97;;
43070;SDS011;36278;47.952;21.714;2022-12-20T05:30:51;58.93;;;32.93;;
43070;SDS011;36278;47.952;21.714;2022-12-20T05:33:16;58.80;;;33.07;;
43070;SDS011;36278;47.952;21.714;2022-12-20T05:35:42;56.63;;;32.07;;
43070;SDS011;36278;47.952;21.714;2022-12-20T05:38:07;56.93;;;30.73;;
43070;SDS011;36278;47.952;21.714;2022-12-20T05:40:33;57.00;;;30.60;;
43070;SDS011;36278;47.952;21.714;2022-12-20T05:42:58;52.37;;;30.70;;
43070;SDS011;36278;47.952;21.714;2022-12-20T05:45:23;55.57;;;29.83;;
43070;SDS011;36278;47.952;21.714;2022-12-20T05:47:49;54.83;;;29.90;;
43070;SDS011;36278;47.952;21.714;2022-12-20T05:50:14;53.37;;;29.27;;
43070;SDS011;36278;47.952;21.714;2022-12-20T05:52:41;53.37;;;30.07;;
43070;SDS011;36278;47.952;21.714;2022-12-20T05:55:06;56.63;;;31.07;;
43070;SDS011;36278;47.952;21.714;2022-12-20T05:57:32;62.83;;;37.83;;
43070;SDS011;36278;47.952;21.714;2022-12-20T05:59:58;71.30;;;39.93;;
43070;SDS011;36278;47.952;21.714;2022-12-20T06:02:23;65.27;;;39.57;;
43070;SDS011;36278;47.952;21.714;2022-12-20T06:04:49;76.40;;;41.73;;
43070;SDS011;36278;47.952;21.714;2022-12-20T06:07:14;73.37;;;42.20;;
43070;SDS011;36278;47.952;21.714;2022-12-20T06:09:39;74.30;;;42.23;;
43070;SDS011;36278;47.952;21.714;2022-12-20T06:12:05;74.67;;;41.37;;
43070;SDS011;36278;47.952;21.714;2022-12-20T06:14:30;81.47;;;43.27;;
43070;SDS011;36278;47.952;21.714;2022-12-20T06:16:56;89.77;;;45.37;;
43070;SDS011;36278;47.952;21.714;2022-12-20T06:19:21;85.53;;;43.63;;
43070;SDS011;36278;47.952;21.714;2022-12-20T06:21:47;92.70;;;44.90;;
43070;SDS011;36278;47.952;21.714;2022-12-20T06:24:12;90.40;;;48.37;;
43070;SDS011;36278;47.952;21.714;2022-12-20T06:26:38;83.03;;;45.83;;
43070;SDS011;36278;47.952;21.714;2022-12-20T06:29:04;90.13;;;47.83;;
43070;SDS011;36278;47.952;21.714;2022-12-20T06:31:31;88.03;;;47.93;;
43070;SDS011;36278;47.952;21.714;2022-12-20T06:33:57;82.20;;;45.90;;
43070;SDS011;36278;47.952;21.714;2022-12-20T06:36:23;85.40;;;46.50;;
43070;SDS011;36278;47.952;21.714;2022-12-20T06:38:49;76.47;;;42.83;;
43070;SDS011;36278;47.952;21.714;2022-12-20T06:41:14;75.50;;;43.20;;
43070;SDS011;36278;47.952;21.714;2022-12-20T06:43:40;72.10;;;40.83;;
43070;SDS011;36278;47.952;21.714;2022-12-20T06:46:05;81.63;;;40.90;;
43070;SDS011;36278;47.952;21.714;2022-12-20T06:48:30;69.37;;;37.93;;
43070;SDS011;36278;47.952;21.714;2022-12-20T06:50:56;67.87;;;36.40;;
43070;SDS011;36278;47.952;21.714;2022-12-20T06:53:22;67.87;;;35.00;;
43070;SDS011;36278;47.952;21.714;2022-12-20T06:55:47;61.27;;;34.17;;
43070;SDS011;36278;47.952;21.714;2022-12-20T06:58:14;58.47;;;32.67;;
43070;SDS011;36278;47.952;21.714;2022-12-20T07:00:40;59.23;;;32.87;;
43070;SDS011;36278;47.952;21.714;2022-12-20T07:03:06;56.87;;;32.50;;
43070;SDS011;36278;47.952;21.714;2022-12-20T07:05:31;56.53;;;32.80;;
43070;SDS011;36278;47.952;21.714;2022-12-20T07:07:57;60.83;;;33.13;;
43070;SDS011;36278;47.952;21.714;2022-12-20T07:10:22;57.43;;;33.40;;
43070;SDS011;36278;47.952;21.714;2022-12-20T07:12:48;57.70;;;32.80;;
43070;SDS011;36278;47.952;21.714;2022-12-20T07:15:13;62.93;;;33.00;;
43070;SDS011;36278;47.952;21.714;2022-12-20T07:17:39;58.00;;;33.37;;
43070;SDS011;36278;47.952;21.714;2022-12-20T07:20:04;61.43;;;33.17;;
43070;SDS011;36278;47.952;21.714;2022-12-20T07:22:31;66.93;;;36.27;;
43070;SDS011;36278;47.952;21.714;2022-12-20T07:24:58;69.87;;;34.80;;
43070;SDS011;36278;47.952;21.714;2022-12-20T07:27:24;66.87;;;37.70;;
43070;SDS011;36278;47.952;21.714;2022-12-20T07:29:50;64.07;;;37.03;;
43070;SDS011;36278;47.952;21.714;2022-12-20T07:32:16;57.83;;;34.03;;
43070;SDS011;36278;47.952;21.714;2022-12-20T07:34:41;62.53;;;38.13;;
43070;SDS011;36278;47.952;21.714;2022-12-20T07:37:07;59.63;;;34.73;;
43070;SDS011;36278;47.952;21.714;2022-12-20T07:39:35;66.47;;;38.57;;
43070;SDS011;36278;47.952;21.714;2022-12-20T07:42:01;66.40;;;37.53;;
43070;SDS011;36278;47.952;21.714;2022-12-20T07:44:26;68.60;;;37.40;;
43070;SDS011;36278;47.952;21.714;2022-12-20T07:46:52;70.10;;;37.23;;
43070;SDS011;36278;47.952;21.714;2022-12-20T07:49:17;65.47;;;37.70;;
43070;SDS011;36278;47.952;21.714;2022-12-20T07:51:44;65.30;;;36.47;;
43070;SDS011;36278;47.952;21.714;2022-12-20T07:54:15;63.73;;;34.97;;
43070;SDS011;36278;47.952;21.714;2022-12-20T07:56:47;61.87;;;34.10;;
43070;SDS011;36278;47.952;21.714;2022-12-20T07:59:18;62.70;;;34.63;;
43070;SDS011;36278;47.952;21.714;2022-12-20T08:01:48;56.40;;;33.37;;
43070;SDS011;36278;47.952;21.714;2022-12-20T08:04:16;54.63;;;31.97;;
43070;SDS011;36278;47.952;21.714;2022-12-20T08:06:45;58.47;;;32.63;;
43070;SDS011;36278;47.952;21.714;2022-12-20T08:09:11;64.93;;;35.00;;
43070;SDS011;36278;47.952;21.714;2022-12-20T08:11:38;61.70;;;37.50;;
43070;SDS011;36278;47.952;21.714;2022-12-20T08:14:07;68.50;;;37.87;;
43070;SDS011;36278;47.952;21.714;2022-12-20T08:16:33;65.80;;;36.10;;
43070;SDS011;36278;47.952;21.714;2022-12-20T08:18:59;66.07;;;37.10;;
43070;SDS011;36278;47.952;21.714;2022-12-20T08:21:25;55.40;;;31.00;;
43070;SDS011;36278;47.952;21.714;2022-12-20T08:23:50;61.20;;;34.30;;
43070;SDS011;36278;47.952;21.714;2022-12-20T08:26:16;60.60;;;34.00;;
43070;SDS011;36278;47.952;21.714;2022-12-20T08:28:42;59.70;;;33.30;;
43070;SDS011;36278;47.952;21.714;2022-12-20T08:31:08;58.80;;;32.60;;
43070;SDS011;36278;47.952;21.714;2022-12-20T08:33:34;58.60;;;34.60;;
43070;SDS011;36278;47.952;21.714;2022-12-20T08:36:03;62.63;;;34.83;;
43070;SDS011;36278;47.952;21.714;2022-12-20T08:38:30;59.20;;;33.80;;
43070;SDS011;36278;47.952;21.714;2022-12-20T08:41:01;59.83;;;33.20;;
43070;SDS011;36278;47.952;21.714;2022-12-20T08:43:27;62.23;;;32.40;;
43070;SDS011;36278;47.952;21.714;2022-12-20T08:45:53;58.53;;;33.50;;
43070;SDS011;36278;47.952;21.714;2022-12-20T08:48:20;54.80;;;34.67;;
43070;SDS011;36278;47.952;21.714;2022-12-20T08:50:46;62.63;;;34.90;;
43070;SDS011;36278;47.952;21.714;2022-12-20T08:53:11;57.97;;;33.83;;
43070;SDS011;36278;47.952;21.714;2022-12-20T08:55:37;63.00;;;34.90;;
43070;SDS011;36278;47.952;21.714;2022-12-20T08:58:02;57.20;;;32.27;;
43070;SDS011;36278;47.952;21.714;2022-12-20T09:00:28;48.30;;;30.80;;
43070;SDS011;36278;47.952;21.714;2022-12-20T09:02:53;55.43;;;33.57;;
43070;SDS011;36278;47.952;21.714;2022-12-20T09:05:19;55.90;;;32.93;;
43070;SDS011;36278;47.952;21.714;2022-12-20T09:07:45;57.53;;;35.10;;
43070;SDS011;36278;47.952;21.714;2022-12-20T09:10:11;63.37;;;37.13;;
43070;SDS011;36278;47.952;21.714;2022-12-20T09:12:37;67.03;;;38.23;;
43070;SDS011;36278;47.952;21.714;2022-12-20T09:15:05;67.20;;;38.53;;
43070;SDS011;36278;47.952;21.714;2022-12-20T09:17:32;66.97;;;39.90;;
43070;SDS011;36278;47.952;21.714;2022-12-20T09:19:58;72.57;;;42.03;;
43070;SDS011;36278;47.952;21.714;2022-12-20T09:22:23;76.17;;;43.60;;
43070;SDS011;36278;47.952;21.714;2022-12-20T09:24:49;69.03;;;42.07;;
43070;SDS011;36278;47.952;21.714;2022-12-20T09:27:14;66.20;;;39.60;;
43070;SDS011;36278;47.952;21.714;2022-12-20T09:29:40;66.77;;;40.50;;
43070;SDS011;36278;47.952;21.714;2022-12-20T09:32:05;73.17;;;43.23;;
43070;SDS011;36278;47.952;21.714;2022-12-20T09:34:31;63.80;;;38.07;;
43070;SDS011;36278;47.952;21.714;2022-12-20T09:36:56;69.83;;;41.37;;
43070;SDS011;36278;47.952;21.714;2022-12-20T09:39:21;68.53;;;39.13;;
43070;SDS011;36278;47.952;21.714;2022-12-20T09:41:47;60.83;;;36.43;;
43070;SDS011;36278;47.952;21.714;2022-12-20T09:44:14;59.43;;;33.67;;
43070;SDS011;36278;47.952;21.714;2022-12-20T09:46:44;54.33;;;32.07;;
43070;SDS011;36278;47.952;21.714;2022-12-20T09:49:14;54.03;;;32.67;;
43070;SDS011;36278;47.952;21.714;2022-12-20T09:59:48;48.20;;;28.80;;
43070;SDS011;36278;47.952;21.714;2022-12-20T10:02:14;44.93;;;25.13;;
43070;SDS011;36278;47.952;21.714;2022-12-20T10:04:45;38.73;;;22.53;;
43070;SDS011;36278;47.952;21.714;2022-12-20T10:07:30;41.67;;;22.90;;
43070;SDS011;36278;47.952;21.714;2022-12-20T10:15:24;35.33;;;22.40;;
43070;SDS011;36278;47.952;21.714;2022-12-20T10:23:36;37.83;;;21.60;;
43070;SDS011;36278;47.952;21.714;2022-12-20T10:26:08;42.27;;;22.73;;
43070;SDS011;36278;47.952;21.714;2022-12-20T10:28:35;37.10;;;22.07;;
43070;SDS011;36278;47.952;21.714;2022-12-20T10:31:02;35.87;;;20.80;;
43070;SDS011;36278;47.952;21.714;2022-12-20T10:33:32;37.37;;;22.73;;
43070;SDS011;36278;47.952;21.714;2022-12-20T10:38:45;38.30;;;22.13;;
43070;SDS011;36278;47.952;21.714;2022-12-20T10:41:14;37.27;;;23.20;;
43070;SDS011;36278;47.952;21.714;2022-12-20T10:43:43;38.43;;;23.10;;
43070;SDS011;36278;47.952;21.714;2022-12-20T10:46:12;37.40;;;22.83;;
43070;SDS011;36278;47.952;21.714;2022-12-20T10:48:41;35.90;;;22.83;;
43070;SDS011;36278;47.952;21.714;2022-12-20T10:53:34;44.20;;;26.17;;
43070;SDS011;36278;47.952;21.714;2022-12-20T10:56:33;38.20;;;23.03;;
43070;SDS011;36278;47.952;21.714;2022-12-20T10:58:58;31.70;;;18.37;;
43070;SDS011;36278;47.952;21.714;2022-12-20T11:01:35;31.37;;;19.37;;
43070;SDS011;36278;47.952;21.714;2022-12-20T11:07:00;37.73;;;20.13;;
43070;SDS011;36278;47.952;21.714;2022-12-20T11:09:34;35.03;;;20.07;;
43070;SDS011;36278;47.952;21.714;2022-12-20T11:12:16;36.37;;;20.47;;
43070;SDS011;36278;47.952;21.714;2022-12-20T11:14:43;36.27;;;20.70;;
43070;SDS011;36278;47.952;21.714;2022-12-20T11:25:53;35.53;;;19.83;;
43070;SDS011;36278;47.952;21.714;2022-12-20T11:39:22;37.87;;;17.33;;
43070;SDS011;36278;47.952;21.714;2022-12-20T11:41:59;27.30;;;16.83;;
43070;SDS011;36278;47.952;21.714;2022-12-20T11:53:03;30.80;;;16.70;;
43070;SDS011;36278;47.952;21.714;2022-12-20T11:55:34;29.93;;;16.60;;
43070;SDS011;36278;47.952;21.714;2022-12-20T12:00:45;28.07;;;17.03;;
43070;SDS011;36278;47.952;21.714;2022-12-20T12:03:20;27.53;;;16.03;;
43070;SDS011;36278;47.952;21.714;2022-12-20T12:05:53;84.83;;;52.53;;
43070;SDS011;36278;47.952;21.714;2022-12-20T12:08:27;43.40;;;28.07;;
43070;SDS011;36278;47.952;21.714;2022-12-20T12:11:05;54.83;;;32.40;;
43070;SDS011;36278;47.952;21.714;2022-12-20T12:13:42;49.30;;;28.50;;
43070;SDS011;36278;47.952;21.714;2022-12-20T12:16:51;51.10;;;28.27;;
43070;SDS011;36278;47.952;21.714;2022-12-20T12:18:59;49.63;;;29.30;;
43070;SDS011;36278;47.952;21.714;2022-12-20T12:21:33;52.73;;;29.93;;
43070;SDS011;36278;47.952;21.714;2022-12-20T12:24:07;51.23;;;29.47;;
43070;SDS011;36278;47.952;21.714;2022-12-20T12:26:41;46.40;;;29.10;;
43070;SDS011;36278;47.952;21.714;2022-12-20T12:37:54;47.27;;;28.40;;
43070;SDS011;36278;47.952;21.714;2022-12-20T12:45:59;41.87;;;23.07;;
43070;SDS011;36278;47.952;21.714;2022-12-20T12:48:38;84.87;;;60.43;;
43070;SDS011;36278;47.952;21.714;2022-12-20T12:51:07;35.27;;;21.87;;
43070;SDS011;36278;47.952;21.714;2022-12-20T12:59:07;32.20;;;20.93;;
43070;SDS011;36278;47.952;21.714;2022-12-20T13:11:48;33.33;;;21.50;;
43070;SDS011;36278;47.952;21.714;2022-12-20T13:19:57;33.50;;;20.67;;
43070;SDS011;36278;47.952;21.714;2022-12-20T13:22:23;36.00;;;21.60;;
43070;SDS011;36278;47.952;21.714;2022-12-20T13:24:57;32.67;;;21.13;;
43070;SDS011;36278;47.952;21.714;2022-12-20T13:27:39;39.57;;;25.57;;
43070;SDS011;36278;47.952;21.714;2022-12-20T13:37:53;40.37;;;24.10;;
43070;SDS011;36278;47.952;21.714;2022-12-20T13:40:37;37.70;;;22.27;;
43070;SDS011;36278;47.952;21.714;2022-12-20T13:45:41;39.07;;;25.10;;
43070;SDS011;36278;47.952;21.714;2022-12-20T13:48:11;37.83;;;23.70;;
43070;SDS011;36278;47.952;21.714;2022-12-20T13:50:48;39.27;;;24.70;;
43070;SDS011;36278;47.952;21.714;2022-12-20T13:53:19;46.77;;;24.83;;
43070;SDS011;36278;47.952;21.714;2022-12-20T13:55:48;38.37;;;24.93;;
43070;SDS011;36278;47.952;21.714;2022-12-20T13:58:17;39.43;;;23.80;;
43070;SDS011;36278;47.952;21.714;2022-12-20T14:00:47;50.87;;;25.87;;
43070;SDS011;36278;47.952;21.714;2022-12-20T14:03:18;46.07;;;26.27;;
43070;SDS011;36278;47.952;21.714;2022-12-20T14:05:44;42.17;;;24.53;;
43070;SDS011;36278;47.952;21.714;2022-12-20T14:08:14;43.43;;;25.30;;
43070;SDS011;36278;47.952;21.714;2022-12-20T14:10:44;36.30;;;23.60;;
43070;SDS011;36278;47.952;21.714;2022-12-20T14:13:27;42.53;;;24.90;;
43070;SDS011;36278;47.952;21.714;2022-12-20T14:15:53;42.63;;;25.33;;
43070;SDS011;36278;47.952;21.714;2022-12-20T14:18:21;38.83;;;24.30;;
43070;SDS011;36278;47.952;21.714;2022-12-20T14:20:52;44.53;;;24.40;;
43070;SDS011;36278;47.952;21.714;2022-12-20T14:23:22;41.57;;;24.73;;
43070;SDS011;36278;47.952;21.714;2022-12-20T14:26:17;38.47;;;22.77;;
43070;SDS011;36278;47.952;21.714;2022-12-20T14:28:47;40.70;;;23.70;;
43070;SDS011;36278;47.952;21.714;2022-12-20T14:34:22;40.30;;;25.07;;
43070;SDS011;36278;47.952;21.714;2022-12-20T14:36:50;44.17;;;26.13;;
43070;SDS011;36278;47.952;21.714;2022-12-20T14:44:24;44.77;;;25.83;;
43070;SDS011;36278;47.952;21.714;2022-12-20T14:46:52;39.73;;;24.47;;
43070;SDS011;36278;47.952;21.714;2022-12-20T14:49:24;41.20;;;24.33;;
43070;SDS011;36278;47.952;21.714;2022-12-20T14:51:53;39.80;;;24.03;;
43070;SDS011;36278;47.952;21.714;2022-12-20T14:54:31;48.97;;;25.83;;
43070;SDS011;36278;47.952;21.714;2022-12-20T14:56:57;39.63;;;25.73;;
43070;SDS011;36278;47.952;21.714;2022-12-20T14:59:26;42.10;;;26.33;;
43070;SDS011;36278;47.952;21.714;2022-12-20T15:01:53;46.63;;;26.73;;
43070;SDS011;36278;47.952;21.714;2022-12-20T15:04:32;49.83;;;27.97;;
43070;SDS011;36278;47.952;21.714;2022-12-20T15:06:59;50.43;;;29.00;;
43070;SDS011;36278;47.952;21.714;2022-12-20T15:09:25;47.80;;;29.33;;
43070;SDS011;36278;47.952;21.714;2022-12-20T15:11:51;55.47;;;30.53;;
43070;SDS011;36278;47.952;21.714;2022-12-20T15:17:00;53.30;;;31.67;;
43070;SDS011;36278;47.952;21.714;2022-12-20T15:19:28;53.17;;;33.40;;
43070;SDS011;36278;47.952;21.714;2022-12-20T15:21:56;57.53;;;34.40;;
43070;SDS011;36278;47.952;21.714;2022-12-20T15:24:25;55.00;;;34.40;;
43070;SDS011;36278;47.952;21.714;2022-12-20T15:26:52;57.23;;;33.70;;
43070;SDS011;36278;47.952;21.714;2022-12-20T15:29:20;59.23;;;34.53;;
43070;SDS011;36278;47.952;21.714;2022-12-20T15:31:48;53.57;;;31.77;;
43070;SDS011;36278;47.952;21.714;2022-12-20T15:36:55;50.17;;;30.27;;
43070;SDS011;36278;47.952;21.714;2022-12-20T15:39:24;49.07;;;30.40;;
43070;SDS011;36278;47.952;21.714;2022-12-20T15:41:52;51.47;;;29.93;;
43070;SDS011;36278;47.952;21.714;2022-12-20T15:44:19;48.53;;;29.60;;
43070;SDS011;36278;47.952;21.714;2022-12-20T15:46:49;58.57;;;32.27;;
43070;SDS011;36278;47.952;21.714;2022-12-20T15:49:16;54.90;;;32.03;;
43070;SDS011;36278;47.952;21.714;2022-12-20T15:51:45;52.63;;;32.80;;
43070;SDS011;36278;47.952;21.714;2022-12-20T15:54:22;62.40;;;33.43;;
43070;SDS011;36278;47.952;21.714;2022-12-20T15:56:56;61.17;;;34.07;;
43070;SDS011;36278;47.952;21.714;2022-12-20T15:59:23;53.97;;;32.03;;
43070;SDS011;36278;47.952;21.714;2022-12-20T16:01:49;50.03;;;30.20;;
43070;SDS011;36278;47.952;21.714;2022-12-20T16:04:18;64.70;;;34.23;;
43070;SDS011;36278;47.952;21.714;2022-12-20T16:06:45;50.57;;;29.07;;
43070;SDS011;36278;47.952;21.714;2022-12-20T16:09:13;48.37;;;27.87;;
43070;SDS011;36278;47.952;21.714;2022-12-20T16:11:38;48.60;;;28.97;;
43070;SDS011;36278;47.952;21.714;2022-12-20T16:14:05;48.00;;;29.30;;
43070;SDS011;36278;47.952;21.714;2022-12-20T16:16:34;48.93;;;29.43;;
43070;SDS011;36278;47.952;21.714;2022-12-20T16:19:01;44.10;;;28.93;;
43070;SDS011;36278;47.952;21.714;2022-12-20T16:21:30;43.63;;;26.33;;
43070;SDS011;36278;47.952;21.714;2022-12-20T16:23:58;45.57;;;27.30;;
43070;SDS011;36278;47.952;21.714;2022-12-20T16:26:24;45.17;;;27.87;;
43070;SDS011;36278;47.952;21.714;2022-12-20T16:28:51;82.70;;;43.50;;
43070;SDS011;36278;47.952;21.714;2022-12-20T16:31:28;83.57;;;51.07;;
43070;SDS011;36278;47.952;21.714;2022-12-20T16:33:55;81.37;;;47.77;;